Time;durP1;ratioP1;P1;durP2;ratioP2;P2;SDS_P1;SDS_P2;PMS_P1;PMS_P2;Temp;Humidity;BMP_temperature;BMP_pressure;BME280_temperature;BME280_humidity;BME280_pressure;Samples;Min_cycle;Max_cycle;Signal;HPM_P1;HPM_P2
2022/08/18 00:01:30;;;;;;;19.90;15.48;;;;;;;;;;5043203;28;20627;-68
2022/08/18 00:03:58;;;;;;;20.20;15.05;;;;;;;;;;5050309;28;20054;-67
2022/08/18 00:06:29;;;;;;;20.45;15.40;;;;;;;;;;5055063;28;20573;-67
2022/08/18 00:08:56;;;;;;;21.00;16.75;;;;;;;;;;5062053;28;20067;-67
2022/08/18 00:11:23;;;;;;;23.55;15.30;;;;;;;;;;5037513;28;20531;-67
2022/08/18 00:13:49;;;;;;;18.52;14.82;;;;;;;;;;5051448;28;20091;-67
2022/08/18 00:16:16;;;;;;;20.73;14.82;;;;;;;;;;5044205;28;20132;-68
2022/08/18 00:18:42;;;;;;;25.20;16.73;;;;;;;;;;5046978;28;20053;-68
2022/08/18 00:21:08;;;;;;;17.73;15.60;;;;;;;;;;5051208;28;20045;-67
2022/08/18 00:23:34;;;;;;;19.77;16.20;;;;;;;;;;5050563;28;20129;-67
2022/08/18 00:26:03;;;;;;;16.38;14.10;;;;;;;;;;5036727;28;20060;-67
2022/08/18 00:28:29;;;;;;;16.40;14.77;;;;;;;;;;5050826;28;20081;-68
2022/08/18 00:30:55;;;;;;;16.38;14.65;;;;;;;;;;5037088;28;20064;-68
2022/08/18 00:33:22;;;;;;;19.23;15.82;;;;;;;;;;5051989;28;20136;-68
2022/08/18 00:35:48;;;;;;;23.85;15.18;;;;;;;;;;5052657;28;20051;-68
2022/08/18 00:38:14;;;;;;;17.33;14.52;;;;;;;;;;5047033;28;20057;-68
2022/08/18 00:40:51;;;;;;;18.45;13.75;;;;;;;;;;5051814;28;20096;-68
2022/08/18 00:43:22;;;;;;;18.23;14.07;;;;;;;;;;5043633;28;20054;-68
2022/08/18 00:45:48;;;;;;;16.45;14.20;;;;;;;;;;5052292;28;20516;-68
2022/08/18 00:48:15;;;;;;;14.95;13.43;;;;;;;;;;5048308;28;20057;-68
2022/08/18 00:50:55;;;;;;;17.67;13.68;;;;;;;;;;5049375;28;20054;-67
2022/08/18 00:53:34;;;;;;;18.25;14.73;;;;;;;;;;5051019;28;20064;-68
2022/08/18 00:56:12;;;;;;;15.48;13.80;;;;;;;;;;5051624;28;20054;-68
2022/08/18 00:58:41;;;;;;;17.83;14.27;;;;;;;;;;5050637;28;20132;-67
2022/08/18 01:01:09;;;;;;;17.52;14.07;;;;;;;;;;5051005;28;20140;-67
2022/08/18 01:03:38;;;;;;;16.63;13.95;;;;;;;;;;5048068;28;20205;-67
2022/08/18 01:06:15;;;;;;;16.00;13.70;;;;;;;;;;5051208;28;20057;-67
2022/08/18 01:08:42;;;;;;;22.52;15.00;;;;;;;;;;5050374;28;20068;-67
2022/08/18 01:11:09;;;;;;;16.80;13.63;;;;;;;;;;5050452;28;20409;-68
2022/08/18 01:13:38;;;;;;;19.63;14.10;;;;;;;;;;5050442;28;20081;-67
2022/08/18 01:21:49;;;;;;;17.02;13.68;;;;;;;;;;5051724;28;20072;-67
2022/08/18 01:21:49;;;;;;;15.70;14.00;;;;;;;;;;5050313;28;20050;-67
2022/08/18 01:24:16;;;;;;;20.20;13.18;;;;;;;;;;5039200;28;20128;-68
2022/08/18 01:26:50;;;;;;;20.20;14.27;;;;;;;;;;5050454;28;20073;-68
2022/08/18 01:29:17;;;;;;;15.27;13.68;;;;;;;;;;5050508;28;20054;-68
2022/08/18 01:31:48;;;;;;;18.10;13.93;;;;;;;;;;5052973;28;20489;-68
2022/08/18 01:34:22;;;;;;;17.30;14.48;;;;;;;;;;5050639;28;20053;-67
2022/08/18 01:36:51;;;;;;;15.70;13.80;;;;;;;;;;5052122;28;20509;-68
2022/08/18 01:39:18;;;;;;;17.92;14.23;;;;;;;;;;5037557;28;20120;-67
2022/08/18 01:42:04;;;;;;;18.73;14.63;;;;;;;;;;5044025;28;20054;-68
2022/08/18 01:44:34;;;;;;;19.52;13.93;;;;;;;;;;5054659;28;20060;-67
2022/08/18 01:47:00;;;;;;;15.98;13.98;;;;;;;;;;5051741;28;20049;-67
2022/08/18 01:49:27;;;;;;;23.58;14.23;;;;;;;;;;5043061;28;20063;-67
2022/08/18 01:51:57;;;;;;;18.65;14.05;;;;;;;;;;5053456;28;20046;-68
2022/08/18 01:54:28;;;;;;;19.88;14.13;;;;;;;;;;5035846;28;20050;-68
2022/08/18 01:56:55;;;;;;;16.25;14.55;;;;;;;;;;5051825;28;20489;-67
2022/08/18 01:59:22;;;;;;;17.17;15.48;;;;;;;;;;5053573;28;20053;-67
2022/08/18 02:01:48;;;;;;;17.98;14.30;;;;;;;;;;5050073;28;20060;-68
2022/08/18 02:04:20;;;;;;;16.63;14.32;;;;;;;;;;5053869;28;20057;-69
2022/08/18 02:07:01;;;;;;;15.63;14.07;;;;;;;;;;5053163;28;20999;-68
2022/08/18 02:09:29;;;;;;;20.52;15.35;;;;;;;;;;5052497;28;20061;-67
2022/08/18 02:11:56;;;;;;;16.08;13.80;;;;;;;;;;5051545;28;20142;-67
2022/08/18 02:14:22;;;;;;;19.85;13.77;;;;;;;;;;5051973;28;20050;-67
2022/08/18 02:16:54;;;;;;;16.60;14.40;;;;;;;;;;5053219;28;20095;-69
2022/08/18 02:19:27;;;;;;;17.17;13.50;;;;;;;;;;5053823;28;20115;-68
2022/08/18 02:21:53;;;;;;;18.25;15.30;;;;;;;;;;5046330;28;20414;-68
2022/08/18 02:24:20;;;;;;;18.05;13.82;;;;;;;;;;5047265;28;20523;-67
2022/08/18 02:26:46;;;;;;;16.05;14.35;;;;;;;;;;5033225;28;20060;-67
2022/08/18 02:29:12;;;;;;;15.57;13.95;;;;;;;;;;5034172;28;20277;-67
2022/08/18 02:31:39;;;;;;;20.25;14.63;;;;;;;;;;5046535;28;20041;-67
2022/08/18 02:34:05;;;;;;;18.40;14.65;;;;;;;;;;5051688;28;20049;-67
2022/08/18 02:36:31;;;;;;;18.38;14.75;;;;;;;;;;5052523;28;20397;-68
2022/08/18 02:38:58;;;;;;;18.05;16.15;;;;;;;;;;5052685;28;20051;-67
2022/08/18 02:41:27;;;;;;;19.35;14.07;;;;;;;;;;5043158;28;20062;-68
2022/08/18 02:43:55;;;;;;;16.83;13.18;;;;;;;;;;5040478;28;20064;-68
2022/08/18 02:46:21;;;;;;;15.80;13.93;;;;;;;;;;5053235;28;20053;-68
2022/08/18 02:48:51;;;;;;;13.85;12.35;;;;;;;;;;5052558;28;20140;-67
2022/08/18 02:51:17;;;;;;;22.58;12.52;;;;;;;;;;5053001;28;20060;-67
2022/08/18 02:53:44;;;;;;;15.70;13.73;;;;;;;;;;5053502;28;20057;-67
2022/08/18 02:56:24;;;;;;;23.40;13.38;;;;;;;;;;5052527;28;20050;-67
2022/08/18 02:59:06;;;;;;;;;;;;;;;;;;5054046;28;20108;-68
2022/08/18 03:01:35;;;;;;;15.57;12.52;;;;;;;;;;5051370;28;45814;-68
2022/08/18 03:04:05;;;;;;;15.05;12.77;;;;;;;;;;5048474;28;20092;-68
2022/08/18 03:06:34;;;;;;;13.60;12.20;;;;;;;;;;5041438;28;20089;-69
2022/08/18 03:09:00;;;;;;;14.90;13.15;;;;;;;;;;5049481;28;20049;-67
2022/08/18 03:11:27;;;;;;;12.80;11.60;;;;;;;;;;5049722;28;20064;-67
2022/08/18 03:13:55;;;;;;;16.38;13.13;;;;;;;;;;5051740;28;20059;-67
2022/08/18 03:16:23;;;;;;;15.27;13.40;;;;;;;;;;5052175;28;20079;-68
2022/08/18 03:18:50;;;;;;;13.48;12.05;;;;;;;;;;5052297;28;20272;-67
2022/08/18 03:21:22;;;;;;;13.38;11.80;;;;;;;;;;5051318;28;20132;-68
2022/08/18 03:23:50;;;;;;;16.42;12.93;;;;;;;;;;5049819;28;20540;-68
2022/08/18 03:26:27;;;;;;;13.40;12.00;;;;;;;;;;5051380;28;20176;-69
2022/08/18 03:28:54;;;;;;;15.45;12.77;;;;;;;;;;5051676;28;20136;-67
2022/08/18 03:31:21;;;;;;;15.25;12.52;;;;;;;;;;5051308;28;20084;-67
2022/08/18 03:33:50;;;;;;;13.13;11.68;;;;;;;;;;5052287;28;20448;-68
2022/08/18 03:36:18;;;;;;;16.70;12.05;;;;;;;;;;5051967;28;21105;-68
2022/08/18 03:38:45;;;;;;;14.48;12.98;;;;;;;;;;5050614;28;20485;-68
2022/08/18 03:41:24;;;;;;;18.83;13.85;;;;;;;;;;5052376;28;20472;-68
2022/08/18 03:44:11;;;;;;;17.23;13.38;;;;;;;;;;5033598;28;20106;-67
2022/08/18 03:46:39;;;;;;;16.65;13.02;;;;;;;;;;5044036;28;20045;-67
2022/08/18 03:49:05;;;;;;;18.08;13.65;;;;;;;;;;5052215;28;20057;-68
2022/08/18 03:51:32;;;;;;;16.08;12.60;;;;;;;;;;5052060;28;20061;-68
2022/08/18 03:54:00;;;;;;;16.67;14.55;;;;;;;;;;5050470;28;20088;-68
2022/08/18 03:56:29;;;;;;;17.67;14.50;;;;;;;;;;5052075;28;20056;-68
2022/08/18 03:58:58;;;;;;;18.65;13.98;;;;;;;;;;5052424;28;20061;-68
2022/08/18 04:01:26;;;;;;;17.38;14.95;;;;;;;;;;5046249;28;20058;-68
2022/08/18 04:03:57;;;;;;;17.75;13.63;;;;;;;;;;5046067;28;20530;-69
2022/08/18 04:06:25;;;;;;;17.50;13.48;;;;;;;;;;5051511;28;20056;-67
2022/08/18 04:08:56;;;;;;;15.70;13.95;;;;;;;;;;5049711;28;20068;-68
2022/08/18 04:11:23;;;;;;;20.90;12.73;;;;;;;;;;5049457;28;20060;-68
2022/08/18 04:13:50;;;;;;;16.48;14.07;;;;;;;;;;5038879;28;20088;-68
2022/08/18 04:16:16;;;;;;;21.23;15.45;;;;;;;;;;5036572;28;20054;-68
2022/08/18 04:18:43;;;;;;;17.70;14.48;;;;;;;;;;5040474;28;20052;-67
2022/08/18 04:21:12;;;;;;;17.73;15.45;;;;;;;;;;5051756;28;20497;-69
2022/08/18 04:23:39;;;;;;;19.02;15.25;;;;;;;;;;5050827;28;20046;-68
2022/08/18 04:26:10;;;;;;;18.77;14.82;;;;;;;;;;5051414;28;20057;-68
2022/08/18 04:28:44;;;;;;;21.65;15.68;;;;;;;;;;5050379;28;20438;-68
2022/08/18 04:31:12;;;;;;;18.33;13.95;;;;;;;;;;5047230;28;20069;-67
2022/08/18 04:33:39;;;;;;;16.63;13.75;;;;;;;;;;5051208;28;20136;-67
2022/08/18 04:36:11;;;;;;;16.35;13.13;;;;;;;;;;5046464;28;20502;-67
2022/08/18 04:38:43;;;;;;;17.08;14.02;;;;;;;;;;5048732;28;20084;-68
2022/08/18 04:41:11;;;;;;;18.55;14.63;;;;;;;;;;5050865;28;20050;-67
2022/08/18 04:43:38;;;;;;;15.52;13.43;;;;;;;;;;5052369;28;20060;-67
2022/08/18 04:46:05;;;;;;;23.63;13.95;;;;;;;;;;5050920;28;20054;-68
2022/08/18 04:48:36;;;;;;;23.02;14.85;;;;;;;;;;5041658;28;20144;-67
2022/08/18 04:51:05;;;;;;;20.55;14.95;;;;;;;;;;5049764;28;20050;-68
2022/08/18 04:53:45;;;;;;;20.13;16.25;;;;;;;;;;5047045;28;20178;-68
2022/08/18 04:56:25;;;;;;;21.30;14.20;;;;;;;;;;5054181;28;20145;-68
2022/08/18 04:58:53;;;;;;;17.23;14.60;;;;;;;;;;5049384;28;20558;-69
2022/08/18 05:01:22;;;;;;;18.33;14.30;;;;;;;;;;5042656;28;20063;-67
2022/08/18 05:03:49;;;;;;;19.15;14.20;;;;;;;;;;5050469;28;20053;-68
2022/08/18 05:06:16;;;;;;;18.58;14.57;;;;;;;;;;5036006;28;20053;-69
2022/08/18 05:08:43;;;;;;;19.55;15.10;;;;;;;;;;5051520;28;20060;-69
2022/08/18 05:11:09;;;;;;;17.75;15.07;;;;;;;;;;5051377;28;20060;-68
2022/08/18 05:13:35;;;;;;;21.25;13.98;;;;;;;;;;5047212;28;20060;-67
2022/08/18 05:16:04;;;;;;;18.38;15.32;;;;;;;;;;5050126;28;20056;-68
2022/08/18 05:18:42;;;;;;;21.52;14.82;;;;;;;;;;5033190;28;20057;-67
2022/08/18 05:21:15;;;;;;;24.27;15.32;;;;;;;;;;5050683;28;20053;-69
2022/08/18 05:23:41;;;;;;;18.05;13.27;;;;;;;;;;5050388;28;20566;-71
2022/08/18 05:26:08;;;;;;;17.67;14.55;;;;;;;;;;5050463;28;20049;-68
2022/08/18 05:28:36;;;;;;;20.98;14.85;;;;;;;;;;5051383;28;20057;-68
2022/08/18 05:31:07;;;;;;;16.48;13.15;;;;;;;;;;5048935;28;20496;-68
2022/08/18 05:33:39;;;;;;;21.48;14.43;;;;;;;;;;5050741;28;20547;-68
2022/08/18 05:36:10;;;;;;;18.40;13.90;;;;;;;;;;5050477;28;20100;-69
2022/08/18 05:38:41;;;;;;;19.88;14.07;;;;;;;;;;5049797;28;20502;-68
2022/08/18 05:41:09;;;;;;;17.90;13.25;;;;;;;;;;5050556;28;20137;-69
2022/08/18 05:43:41;;;;;;;19.00;13.32;;;;;;;;;;5048855;28;20155;-69
2022/08/18 05:46:36;;;;;;;18.00;13.25;;;;;;;;;;5045824;28;20964;-68
2022/08/18 05:49:05;;;;;;;21.30;13.68;;;;;;;;;;5049346;28;20056;-68
2022/08/18 05:51:34;;;;;;;17.40;13.55;;;;;;;;;;5051146;28;20067;-69
2022/08/18 05:56:49;;;;;;;17.58;14.63;;;;;;;;;;5037458;28;20053;-69
2022/08/18 05:59:21;;;;;;;17.60;14.60;;;;;;;;;;5048177;28;20077;-69
2022/08/18 06:01:52;;;;;;;22.80;14.05;;;;;;;;;;5049096;28;20057;-68
2022/08/18 06:04:24;;;;;;;17.10;13.93;;;;;;;;;;5047797;28;20982;-68
2022/08/18 06:06:51;;;;;;;19.52;13.68;;;;;;;;;;5050608;28;20053;-68
2022/08/18 06:09:33;;;;;;;19.73;13.98;;;;;;;;;;5047618;28;20061;-69
2022/08/18 06:12:07;;;;;;;16.95;11.73;;;;;;;;;;5050515;28;20053;-69
2022/08/18 06:14:35;;;;;;;18.58;13.38;;;;;;;;;;5058719;28;20061;-69
2022/08/18 06:17:07;;;;;;;15.40;12.63;;;;;;;;;;5061674;28;20057;-69
2022/08/18 06:19:46;;;;;;;16.52;12.43;;;;;;;;;;5050082;28;20405;-71
2022/08/18 06:22:15;;;;;;;17.67;12.15;;;;;;;;;;5054004;28;20053;-69
2022/08/18 06:24:46;;;;;;;16.27;12.65;;;;;;;;;;5052760;28;21009;-69
2022/08/18 06:27:32;;;;;;;13.80;12.40;;;;;;;;;;5054020;28;20520;-70
2022/08/18 06:30:09;;;;;;;15.95;13.18;;;;;;;;;;5069079;28;20493;-69
2022/08/18 06:32:36;;;;;;;16.42;11.82;;;;;;;;;;5043775;28;20547;-69
2022/08/18 06:35:24;;;;;;;14.95;12.77;;;;;;;;;;5069010;28;20056;-70
2022/08/18 06:38:52;;;;;;;18.35;12.48;;;;;;;;;;5053651;28;20058;-69
2022/08/18 06:41:13;;;;;;;16.40;12.90;;;;;;;;;;5054563;28;20050;-71
2022/08/18 06:44:07;;;;;;;17.42;11.80;;;;;;;;;;5047108;28;20057;-72
2022/08/18 06:46:40;;;;;;;15.55;11.95;;;;;;;;;;5052534;28;20534;-72
2022/08/18 06:49:11;;;;;;;16.77;11.38;;;;;;;;;;5053295;28;20056;-72
2022/08/18 06:51:38;;;;;;;15.27;12.05;;;;;;;;;;5048523;28;20058;-71
2022/08/18 06:54:18;;;;;;;15.10;11.52;;;;;;;;;;5052895;28;20061;-71
2022/08/18 06:56:47;;;;;;;16.00;11.40;;;;;;;;;;5053152;28;20520;-70
2022/08/18 06:59:24;;;;;;;16.65;12.00;;;;;;;;;;5053970;28;20058;-71
2022/08/18 07:02:00;;;;;;;17.25;12.15;;;;;;;;;;5053017;28;20500;-68
2022/08/18 07:04:26;;;;;;;;;;;;;;;;;;5053535;28;20494;-70
2022/08/18 07:06:55;;;;;;;14.10;10.40;;;;;;;;;;5047950;28;46511;-70
2022/08/18 07:09:23;;;;;;;19.20;10.80;;;;;;;;;;5050980;28;20060;-71
2022/08/18 07:11:58;;;;;;;13.30;11.18;;;;;;;;;;5053251;28;20064;-71
2022/08/18 07:14:27;;;;;;;13.32;9.65;;;;;;;;;;5053537;28;20108;-71
2022/08/18 07:17:22;;;;;;;13.40;10.73;;;;;;;;;;5053366;28;20075;-70
2022/08/18 07:20:20;;;;;;;12.65;11.02;;;;;;;;;;5053304;28;20057;-71
2022/08/18 07:22:58;;;;;;;17.15;11.55;;;;;;;;;;5053062;28;20152;-71
2022/08/18 07:25:36;;;;;;;12.38;10.73;;;;;;;;;;5053249;28;20053;-71
2022/08/18 07:28:02;;;;;;;12.35;10.23;;;;;;;;;;5046587;28;20057;-70
2022/08/18 07:30:32;;;;;;;12.75;8.93;;;;;;;;;;5053320;28;20050;-70
2022/08/18 07:33:12;;;;;;;12.85;11.55;;;;;;;;;;5053325;28;20053;-70
2022/08/18 07:35:41;;;;;;;11.63;9.60;;;;;;;;;;5052572;28;20493;-69
2022/08/18 07:38:18;;;;;;;13.25;10.63;;;;;;;;;;5048769;28;20045;-70
2022/08/18 07:41:04;;;;;;;11.90;9.93;;;;;;;;;;5050899;28;20050;-70
2022/08/18 07:43:52;;;;;;;13.15;8.40;;;;;;;;;;5052595;28;20059;-70
2022/08/18 07:46:29;;;;;;;11.38;8.80;;;;;;;;;;5052855;28;20056;-69
2022/08/18 07:48:57;;;;;;;21.48;9.70;;;;;;;;;;5052421;28;20049;-69
2022/08/18 07:51:57;;;;;;;11.38;9.27;;;;;;;;;;5051741;28;20065;-68
2022/08/18 07:54:40;;;;;;;13.18;9.55;;;;;;;;;;5030175;28;20050;-70
2022/08/18 07:57:18;;;;;;;10.48;9.10;;;;;;;;;;5052379;28;20135;-69
2022/08/18 07:59:53;;;;;;;11.27;9.77;;;;;;;;;;5053017;28;20053;-68
2022/08/18 08:02:28;;;;;;;11.07;9.25;;;;;;;;;;5053037;28;20053;-70
2022/08/18 08:04:54;;;;;;;;;;;;;;;;;;5053461;28;20085;-69
2022/08/18 08:07:42;;;;;;;9.80;7.30;;;;;;;;;;5049724;28;46993;-70
2022/08/18 08:10:13;;;;;;;8.52;7.60;;;;;;;;;;5052762;28;20492;-69
2022/08/18 08:12:45;;;;;;;13.38;7.80;;;;;;;;;;5051120;28;20049;-69
2022/08/18 08:15:12;;;;;;;9.85;8.35;;;;;;;;;;5052439;28;20075;-69
2022/08/18 08:17:52;;;;;;;10.98;9.02;;;;;;;;;;5052230;28;20049;-69
2022/08/18 08:20:32;;;;;;;8.38;7.57;;;;;;;;;;5052320;28;20525;-68
2022/08/18 08:23:17;;;;;;;8.07;6.93;;;;;;;;;;5052482;28;20065;-70
2022/08/18 08:25:49;;;;;;;10.25;9.20;;;;;;;;;;5051276;28;20425;-70
2022/08/18 08:28:27;;;;;;;10.77;9.23;;;;;;;;;;5044901;28;20046;-70
2022/08/18 08:31:04;;;;;;;7.72;6.95;;;;;;;;;;5032115;28;20057;-70
2022/08/18 08:33:54;;;;;;;7.78;6.93;;;;;;;;;;5049191;28;20057;-70
2022/08/18 08:36:26;;;;;;;9.10;7.25;;;;;;;;;;5051154;28;20061;-71
2022/08/18 08:38:58;;;;;;;9.13;8.00;;;;;;;;;;5051579;28;20064;-71
2022/08/18 08:41:31;;;;;;;9.23;7.45;;;;;;;;;;5051599;28;20056;-69
2022/08/18 08:44:06;;;;;;;6.75;5.50;;;;;;;;;;5051418;28;20128;-69
2022/08/18 08:46:46;;;;;;;7.18;5.85;;;;;;;;;;5051888;28;20064;-69
2022/08/18 08:49:32;;;;;;;9.35;6.38;;;;;;;;;;5051445;28;20079;-70
2022/08/18 08:52:02;;;;;;;9.18;7.20;;;;;;;;;;5034979;28;20057;-70
2022/08/18 08:54:34;;;;;;;10.93;7.32;;;;;;;;;;5051975;28;20061;-69
2022/08/18 08:57:01;;;;;;;6.80;6.18;;;;;;;;;;5051474;28;20064;-69
2022/08/18 08:59:27;;;;;;;10.40;6.68;;;;;;;;;;5051651;28;20057;-69
2022/08/18 09:01:57;;;;;;;7.05;6.07;;;;;;;;;;5048033;28;20056;-68
2022/08/18 09:04:48;;;;;;;8.25;6.72;;;;;;;;;;5045186;28;20065;-69
2022/08/18 09:07:59;;;;;;;8.90;5.70;;;;;;;;;;5046196;28;20148;-68
2022/08/18 09:10:44;;;;;;;8.15;5.50;;;;;;;;;;5048676;28;20053;-69
2022/08/18 09:13:34;;;;;;;11.93;6.50;;;;;;;;;;5051411;28;20059;-69
2022/08/18 09:16:11;;;;;;;6.10;5.20;;;;;;;;;;5050409;28;20049;-69
2022/08/18 09:18:43;;;;;;;8.63;5.70;;;;;;;;;;5051573;28;20141;-68
2022/08/18 09:21:31;;;;;;;6.15;5.55;;;;;;;;;;5050882;28;20081;-67
2022/08/18 09:24:06;;;;;;;7.88;6.55;;;;;;;;;;5044646;28;20045;-67
2022/08/18 09:26:34;;;;;;;6.43;5.70;;;;;;;;;;5049973;28;20059;-68
2022/08/18 09:29:22;;;;;;;7.00;5.63;;;;;;;;;;5048945;28;20057;-68
2022/08/18 09:32:09;;;;;;;6.40;5.82;;;;;;;;;;5039294;28;20093;-68
2022/08/18 09:34:55;;;;;;;6.70;6.10;;;;;;;;;;5045855;28;20477;-68
2022/08/18 09:37:24;;;;;;;6.95;6.07;;;;;;;;;;5050516;28;20053;-67
2022/08/18 09:42:40;;;;;;;6.82;4.80;;;;;;;;;;5051032;28;20049;-68
2022/08/18 09:45:24;;;;;;;6.47;4.93;;;;;;;;;;5038543;28;20116;-68
2022/08/18 09:48:17;;;;;;;7.15;5.03;;;;;;;;;;5050155;28;20065;-68
2022/08/18 09:50:53;;;;;;;5.43;4.93;;;;;;;;;;5050277;28;20143;-68
2022/08/18 09:53:35;;;;;;;4.95;4.50;;;;;;;;;;5054209;28;20172;-68
2022/08/18 09:56:03;;;;;;;7.35;4.82;;;;;;;;;;5053468;28;20057;-67
2022/08/18 09:58:49;;;;;;;6.60;4.88;;;;;;;;;;5053985;28;20139;-68
2022/08/18 10:01:16;;;;;;;;;;;;;;;;;;5053341;28;20137;-68
2022/08/18 10:03:42;;;;;;;5.95;5.20;;;;;;;;;;5052851;28;42480;-68
2022/08/18 10:06:14;;;;;;;5.55;4.50;;;;;;;;;;5052667;28;20485;-69
2022/08/18 10:08:49;;;;;;;6.82;5.45;;;;;;;;;;5048904;28;20093;-69
2022/08/18 10:11:20;;;;;;;6.90;4.97;;;;;;;;;;5051703;28;20056;-68
2022/08/18 10:13:49;;;;;;;6.05;5.45;;;;;;;;;;5052946;28;20078;-68
2022/08/18 10:16:35;;;;;;;7.57;5.05;;;;;;;;;;5053051;28;20065;-69
2022/08/18 10:19:28;;;;;;;7.07;5.55;;;;;;;;;;5038350;28;20054;-68
2022/08/18 10:22:06;;;;;;;5.55;4.05;;;;;;;;;;5052274;28;20057;-69
2022/08/18 10:24:33;;;;;;;11.68;3.72;;;;;;;;;;5053235;28;20054;-69
2022/08/18 10:27:25;;;;;;;7.13;4.45;;;;;;;;;;5047833;28;20521;-69
2022/08/18 10:29:55;;;;;;;7.85;3.47;;;;;;;;;;5051472;28;20049;-69
2022/08/18 10:32:23;;;;;;;3.88;3.50;;;;;;;;;;5052873;28;20084;-69
2022/08/18 10:34:51;;;;;;;5.18;3.28;;;;;;;;;;5052941;28;20051;-69
2022/08/18 10:37:37;;;;;;;7.47;3.50;;;;;;;;;;5053351;28;20105;-69
2022/08/18 10:40:09;;;;;;;4.05;3.67;;;;;;;;;;5052770;28;20536;-69
2022/08/18 10:42:48;;;;;;;4.38;3.35;;;;;;;;;;5052278;28;20055;-70
2022/08/18 10:45:18;;;;;;;5.28;3.42;;;;;;;;;;5052272;28;20501;-69
2022/08/18 10:48:23;;;;;;;4.15;3.45;;;;;;;;;;5050840;28;20049;-69
2022/08/18 10:50:55;;;;;;;3.42;3.13;;;;;;;;;;5045583;28;20133;-69
2022/08/18 10:53:30;;;;;;;3.90;2.80;;;;;;;;;;5049943;28;20064;-64
2022/08/18 10:56:19;;;;;;;5.93;3.15;;;;;;;;;;5048142;28;20053;-64
2022/08/18 10:59:03;;;;;;;3.95;3.42;;;;;;;;;;5052531;28;20148;-64
2022/08/18 11:01:44;;;;;;;4.43;3.28;;;;;;;;;;5052115;28;20053;-65
2022/08/18 11:04:19;;;;;;;3.55;3.25;;;;;;;;;;5052778;28;20504;-64
2022/08/18 11:07:14;;;;;;;5.20;4.18;;;;;;;;;;5045911;28;20053;-63
2022/08/18 11:09:44;;;;;;;7.10;4.03;;;;;;;;;;5049735;28;20054;-62
2022/08/18 11:12:45;;;;;;;4.15;3.35;;;;;;;;;;5052000;28;20061;-63
2022/08/18 11:15:18;;;;;;;3.95;3.60;;;;;;;;;;5052831;28;20057;-62
2022/08/18 11:17:59;;;;;;;4.85;3.30;;;;;;;;;;5052456;28;20053;-62
2022/08/18 11:20:32;;;;;;;5.00;3.03;;;;;;;;;;5049208;28;20057;-63
2022/08/18 11:23:00;;;;;;;5.43;3.42;;;;;;;;;;5052651;28;20064;-62
2022/08/18 11:25:29;;;;;;;4.85;3.55;;;;;;;;;;5052144;28;20540;-62
2022/08/18 11:27:56;;;;;;;4.43;3.17;;;;;;;;;;5052741;28;20057;-62
2022/08/18 11:30:36;;;;;;;3.85;3.17;;;;;;;;;;5050605;28;20167;-62
2022/08/18 11:33:05;;;;;;;5.22;3.00;;;;;;;;;;5049140;28;20052;-63
2022/08/18 11:35:34;;;;;;;4.38;2.70;;;;;;;;;;5051350;28;20065;-62
2022/08/18 11:38:11;;;;;;;3.75;2.67;;;;;;;;;;5051835;28;20450;-64
2022/08/18 11:40:42;;;;;;;7.15;3.10;;;;;;;;;;5051240;28;20060;-63
2022/08/18 11:43:30;;;;;;;3.78;2.65;;;;;;;;;;5052643;28;20045;-64
2022/08/18 11:46:12;;;;;;;3.28;2.90;;;;;;;;;;5048928;28;20097;-64
2022/08/18 11:48:44;;;;;;;3.45;2.85;;;;;;;;;;5052297;28;20060;-64
2022/08/18 11:51:19;;;;;;;5.10;3.10;;;;;;;;;;5048873;28;20077;-64
2022/08/18 11:53:53;;;;;;;3.17;2.88;;;;;;;;;;5050532;28;20050;-63
2022/08/18 11:56:29;;;;;;;3.30;3.00;;;;;;;;;;5050739;28;20053;-64
2022/08/18 11:59:04;;;;;;;3.05;2.75;;;;;;;;;;5051206;28;20080;-63
2022/08/18 12:01:31;;;;;;;5.95;2.97;;;;;;;;;;5051561;28;20509;-62
2022/08/18 12:04:15;;;;;;;3.30;2.40;;;;;;;;;;5049515;28;20093;-64
2022/08/18 12:06:58;;;;;;;3.08;2.60;;;;;;;;;;5051953;28;20057;-63
2022/08/18 12:09:24;;;;;;;2.70;2.50;;;;;;;;;;5051004;28;20506;-63
2022/08/18 12:12:21;;;;;;;4.50;2.92;;;;;;;;;;5049755;28;20068;-63
2022/08/18 12:14:56;;;;;;;7.47;3.28;;;;;;;;;;5051040;28;20136;-63
2022/08/18 12:17:35;;;;;;;3.50;3.20;;;;;;;;;;5035743;28;20057;-66
2022/08/18 12:20:05;;;;;;;4.47;2.97;;;;;;;;;;5051102;28;20104;-63
2022/08/18 12:22:39;;;;;;;4.95;2.65;;;;;;;;;;5050299;28;20452;-63
2022/08/18 12:25:07;;;;;;;3.42;2.45;;;;;;;;;;5052128;28;20053;-63
2022/08/18 12:27:37;;;;;;;5.15;2.50;;;;;;;;;;5050909;28;20531;-62
2022/08/18 12:30:05;;;;;;;3.80;2.33;;;;;;;;;;5045255;28;20148;-63
2022/08/18 12:32:32;;;;;;;6.75;3.05;;;;;;;;;;5050392;28;20092;-63
2022/08/18 12:35:15;;;;;;;3.80;2.17;;;;;;;;;;5045894;28;20061;-68
2022/08/18 12:37:47;;;;;;;3.00;2.45;;;;;;;;;;5050427;28;20527;-67
2022/08/18 12:40:33;;;;;;;2.53;2.33;;;;;;;;;;5046071;28;20068;-69
2022/08/18 12:43:00;;;;;;;2.50;2.30;;;;;;;;;;5051110;28;20417;-70
2022/08/18 12:45:27;;;;;;;2.45;2.20;;;;;;;;;;5051528;28;20088;-70
2022/08/18 12:47:54;;;;;;;2.65;2.20;;;;;;;;;;5033531;28;20053;-68
2022/08/18 12:50:20;;;;;;;2.83;2.00;;;;;;;;;;5048975;28;20073;-67
2022/08/18 12:52:59;;;;;;;4.95;2.35;;;;;;;;;;5050607;28;20509;-67
2022/08/18 12:55:26;;;;;;;6.20;3.28;;;;;;;;;;5051206;28;20084;-68
2022/08/18 12:57:53;;;;;;;6.20;3.22;;;;;;;;;;5050667;28;20057;-66
2022/08/18 13:00:20;;;;;;;2.20;2.00;;;;;;;;;;5049835;28;20084;-67
2022/08/18 13:02:54;;;;;;;3.88;2.78;;;;;;;;;;5049518;28;20058;-68
2022/08/18 13:05:21;;;;;;;3.45;2.72;;;;;;;;;;5050536;28;20127;-67
2022/08/18 13:08:00;;;;;;;6.32;2.78;;;;;;;;;;5046025;28;20498;-68
2022/08/18 13:10:30;;;;;;;4.25;2.20;;;;;;;;;;5051301;28;20053;-68
2022/08/18 13:13:12;;;;;;;2.90;2.45;;;;;;;;;;5046667;28;20057;-68
2022/08/18 13:15:39;;;;;;;2.70;2.30;;;;;;;;;;5049871;28;20139;-67
2022/08/18 13:18:22;;;;;;;2.72;2.00;;;;;;;;;;5050326;28;20053;-67
2022/08/18 13:20:53;;;;;;;6.53;3.60;;;;;;;;;;5051378;28;20061;-68
2022/08/18 13:23:20;;;;;;;11.45;4.90;;;;;;;;;;5051413;28;20495;-69
2022/08/18 13:25:51;;;;;;;3.28;2.80;;;;;;;;;;5053292;28;20088;-65
2022/08/18 13:28:26;;;;;;;3.33;2.90;;;;;;;;;;5042732;28;20053;-68
2022/08/18 13:30:55;;;;;;;4.15;3.08;;;;;;;;;;5054025;28;20100;-70
2022/08/18 13:33:22;;;;;;;4.95;3.10;;;;;;;;;;5050357;28;20098;-71
2022/08/18 13:36:10;;;;;;;5.28;3.08;;;;;;;;;;5054180;28;20544;-72
2022/08/18 13:38:36;;;;;;;4.75;2.80;;;;;;;;;;5054849;28;20057;-70
2022/08/18 13:41:07;;;;;;;5.45;2.90;;;;;;;;;;5053872;28;20057;-70
2022/08/18 13:43:36;;;;;;;3.72;2.70;;;;;;;;;;5052602;28;20056;-71
2022/08/18 13:46:05;;;;;;;3.95;2.95;;;;;;;;;;5054344;28;20060;-71
2022/08/18 13:48:31;;;;;;;3.17;2.80;;;;;;;;;;5054301;28;20505;-69
2022/08/18 13:51:00;;;;;;;6.10;2.97;;;;;;;;;;5054006;28;20921;-70
2022/08/18 13:53:28;;;;;;;4.03;3.60;;;;;;;;;;5053780;28;20053;-70
2022/08/18 13:55:59;;;;;;;3.10;2.17;;;;;;;;;;5053024;28;20081;-71
2022/08/18 13:58:27;;;;;;;2.92;1.90;;;;;;;;;;5044523;28;20519;-69
2022/08/18 14:01:01;;;;;;;3.75;2.13;;;;;;;;;;5051186;28;20053;-69
2022/08/18 14:03:47;;;;;;;8.10;2.67;;;;;;;;;;5052381;28;20049;-69
2022/08/18 14:06:16;;;;;;;3.05;2.30;;;;;;;;;;5053213;28;20053;-69
2022/08/18 14:08:48;;;;;;;3.92;2.47;;;;;;;;;;5051079;28;20064;-70
2022/08/18 14:11:16;;;;;;;2.30;2.00;;;;;;;;;;5046994;28;20053;-70
2022/08/18 14:13:43;;;;;;;2.90;2.03;;;;;;;;;;5054458;28;20053;-70
2022/08/18 14:16:10;;;;;;;3.47;2.40;;;;;;;;;;5053537;28;20092;-69
2022/08/18 14:26:46;;;;;;;4.57;2.58;;;;;;;;;;5039536;28;20089;-67
2022/08/18 14:27:14;;;;;;;4.53;2.83;;;;;;;;;;5052122;28;20061;-68
2022/08/18 14:29:42;;;;;;;2.53;2.30;;;;;;;;;;5053094;28;20509;-68
2022/08/18 14:32:13;;;;;;;6.47;2.58;;;;;;;;;;5053196;28;20111;-67
2022/08/18 14:34:54;;;;;;;5.72;2.78;;;;;;;;;;5047136;28;20492;-69
2022/08/18 14:37:26;;;;;;;5.82;2.78;;;;;;;;;;5049207;28;20061;-68
2022/08/18 14:39:52;;;;;;;6.20;2.80;;;;;;;;;;5051339;28;20045;-67
2022/08/18 14:42:20;;;;;;;2.80;2.47;;;;;;;;;;5051741;28;20065;-69
2022/08/18 14:45:07;;;;;;;4.53;2.70;;;;;;;;;;5052582;28;20133;-69
2022/08/18 14:47:53;;;;;;;4.05;2.65;;;;;;;;;;5041858;28;20065;-69
2022/08/18 14:50:20;;;;;;;2.63;2.20;;;;;;;;;;5051360;28;20059;-69
2022/08/18 14:52:51;;;;;;;2.72;2.47;;;;;;;;;;5051656;28;20148;-69
2022/08/18 14:55:18;;;;;;;3.05;2.30;;;;;;;;;;5052921;28;20269;-69
2022/08/18 14:57:45;;;;;;;2.60;2.28;;;;;;;;;;5052590;28;20050;-69
2022/08/18 15:00:15;;;;;;;2.47;2.20;;;;;;;;;;5051474;28;20054;-69
2022/08/18 15:02:42;;;;;;;2.83;2.20;;;;;;;;;;5051789;28;20064;-68
2022/08/18 15:05:09;;;;;;;2.53;2.30;;;;;;;;;;5052517;28;20046;-70
2022/08/18 15:07:45;;;;;;;2.60;2.35;;;;;;;;;;5051603;28;20058;-68
2022/08/18 15:10:12;;;;;;;2.60;2.30;;;;;;;;;;5051158;28;20064;-67
2022/08/18 15:12:42;;;;;;;3.95;2.20;;;;;;;;;;5052336;28;20108;-67
2022/08/18 15:15:11;;;;;;;3.65;2.05;;;;;;;;;;5052052;28;20060;-70
2022/08/18 15:17:44;;;;;;;2.67;2.03;;;;;;;;;;5051331;28;20053;-69
2022/08/18 15:20:16;;;;;;;2.53;1.90;;;;;;;;;;5052411;28;20133;-68